Celik 1 — 9HKY9 — position and weather

sailwx.info

Track history (hours):
 
Tides and Currents Weather Stations Pressure Air Temp Water Temp Dewpoint Dewpoint Depression Visibility Wind Speed Wind Dir Waves Ship Positions

Celik 1

Last reported at 2016-Dec-05 19:26 UTC. Time now 2016-Dec-06 10:14 UTC.
Position N 38°02' E 024°41'.

Length 121 m; draft 4.5 m.

Type: Cargo ship. MMSI: 249114000.

Date/timePositionNaut miles runAvg speedWind from/ knotsBaromVisibWave heightAir tempDewpointWater temp
2016-Dec-05 19:26N 38°02' E 024°41'6 6.5
2016-Dec-05 18:33N 37°57' E 024°38'15 7.0
2016-Dec-05 16:26N 37°46' E 024°24'6 7.3
2016-Dec-05 15:33N 37°42' E 024°18'6 5.7
2016-Dec-05 14:33N 37°38' E 024°13'8 5.9
2016-Dec-05 13:12N 37°34' E 024°04'7 8.7
2016-Dec-05 12:21N 37°33' E 023°55'7 8.4
2016-Dec-05 11:32N 37°30' E 023°48'9 8.6
2016-Dec-05 10:33N 37°23' E 023°40'8 7.1
2016-Dec-05 09:28N 37°18' E 023°34'7 7.3
2016-Dec-05 08:32N 37°12' E 023°28'7 7.5
2016-Dec-05 07:33N 37°06' E 023°24'9 8.2
2016-Dec-05 06:31N 36°57' E 023°22'  
Track history (hours):
 
Tides and Currents Weather Stations Pressure Air Temp Water Temp Dewpoint Dewpoint Depression Visibility Wind Speed Wind Dir Waves Ship Positions

Celik 1

Last reported at 2016-Dec-05 19:26 UTC. Time now 2016-Dec-06 10:14 UTC.
Position N 38°02' E 024°41'.

Length 121 m; draft 4.5 m.

Type: Cargo ship. MMSI: 249114000.

Date/timePositionNaut miles runAvg speedWind from/ knotsBaromVisibWave heightAir tempDewpointWater temp
2016-Dec-05 19:26N 38°02' E 024°41'6 6.5
2016-Dec-05 18:33N 37°57' E 024°38'15 7.0
2016-Dec-05 16:26N 37°46' E 024°24'6 7.3
2016-Dec-05 15:33N 37°42' E 024°18'6 5.7
2016-Dec-05 14:33N 37°38' E 024°13'8 5.9
2016-Dec-05 13:12N 37°34' E 024°04'7 8.7
2016-Dec-05 12:21N 37°33' E 023°55'7 8.4
2016-Dec-05 11:32N 37°30' E 023°48'9 8.6
2016-Dec-05 10:33N 37°23' E 023°40'8 7.1
2016-Dec-05 09:28N 37°18' E 023°34'7 7.3
2016-Dec-05 08:32N 37°12' E 023°28'7 7.5
2016-Dec-05 07:33N 37°06' E 023°24'9 8.2
2016-Dec-05 06:31N 36°57' E 023°22'  

Dump ship's entire track history